Time;durP1;ratioP1;P1;durP2;ratioP2;P2;SDS_P1;SDS_P2;PMS_P1;PMS_P2;Temp;Humidity;BMP_temperature;BMP_pressure;BME280_temperature;BME280_humidity;BME280_pressure;Samples;Min_cycle;Max_cycle;Signal;HPM_P1;HPM_P2
2022/05/28 00:01:38;;;;;;;22.80;10.85;;;18.90;99.90;;;;;;5094597;28;20382;-59
2022/05/28 00:04:08;;;;;;;22.58;9.68;;;18.90;99.90;;;;;;5094382;28;20043;-58
2022/05/28 00:06:35;;;;;;;19.00;9.32;;;18.90;99.90;;;;;;5094423;28;20028;-59
2022/05/28 00:09:02;;;;;;;20.20;9.50;;;18.80;99.90;;;;;;5094489;28;20024;-58
2022/05/28 00:11:33;;;;;;;19.85;9.93;;;18.80;99.90;;;;;;5094281;28;20028;-59
2022/05/28 00:13:59;;;;;;;;;;;18.80;99.90;;;;;;5094812;28;20489;-59
2022/05/28 00:16:25;;;;;;;20.67;10.35;;;18.80;99.90;;;;;;5094562;28;19938;-59
2022/05/28 00:18:52;;;;;;;20.13;10.38;;;18.70;99.90;;;;;;5094263;28;20032;-59
2022/05/28 00:21:19;;;;;;;24.10;10.32;;;18.70;99.90;;;;;;5094358;28;20027;-59
2022/05/28 00:23:46;;;;;;;23.35;10.20;;;18.60;99.90;;;;;;5094161;28;20023;-59
2022/05/28 00:26:13;;;;;;;16.60;10.15;;;18.70;99.90;;;;;;5094232;28;20024;-59
2022/05/28 00:28:39;;;;;;;18.95;9.65;;;18.60;99.90;;;;;;5108736;28;20100;-59
2022/05/28 00:31:06;;;;;;;18.42;10.27;;;18.60;99.90;;;;;;5115210;28;20023;-59
2022/05/28 00:33:32;;;;;;;22.92;11.45;;;18.50;99.90;;;;;;5114642;28;20057;-59
2022/05/28 00:36:00;;;;;;;20.13;9.90;;;18.50;99.90;;;;;;5114677;28;20396;-59
2022/05/28 00:38:27;;;;;;;20.55;10.13;;;18.50;99.90;;;;;;5114775;28;20061;-59
2022/05/28 00:40:59;;;;;;;16.90;10.00;;;18.40;99.90;;;;;;5114454;28;20028;-59
2022/05/28 00:43:27;;;;;;;21.92;10.73;;;18.40;99.90;;;;;;5114750;28;20049;-59
2022/05/28 00:46:00;;;;;;;19.92;9.40;;;18.40;99.90;;;;;;5114563;28;20495;-59
2022/05/28 00:48:31;;;;;;;17.55;8.93;;;18.30;99.90;;;;;;5114456;28;20024;-59
2022/05/28 00:51:07;;;;;;;13.05;8.73;;;18.30;99.90;;;;;;5114554;28;20032;-59
2022/05/28 00:53:34;;;;;;;15.60;8.98;;;18.20;99.90;;;;;;5113063;28;20076;-59
2022/05/28 00:56:03;;;;;;;18.23;8.82;;;18.10;99.90;;;;;;5094972;28;20077;-58
2022/05/28 00:58:29;;;;;;;18.80;8.73;;;18.10;99.90;;;;;;5098086;28;20032;-59
2022/05/28 01:00:56;;;;;;;23.77;9.50;;;18.20;99.90;;;;;;5098043;28;20060;-59
2022/05/28 01:03:41;;;;;;;15.10;8.95;;;18.10;99.90;;;;;;5097747;28;20060;-59
2022/05/28 01:06:24;;;;;;;22.35;9.52;;;18.20;99.90;;;;;;5097688;28;20535;-59
2022/05/28 01:09:04;;;;;;;19.45;9.77;;;18.10;99.90;;;;;;5097660;28;20059;-59
2022/05/28 01:11:50;;;;;;;17.92;8.60;;;18.10;99.90;;;;;;5097754;28;20042;-59
2022/05/28 01:14:24;;;;;;;18.17;8.88;;;18.10;99.90;;;;;;5097843;28;20024;-59
2022/05/28 01:16:54;;;;;;;22.45;8.18;;;18.20;99.90;;;;;;5097289;28;20032;-59
2022/05/28 01:19:59;;;;;;;19.98;7.93;;;18.10;99.90;;;;;;5097671;28;20039;-59
2022/05/28 01:22:54;;;;;;;15.15;8.63;;;18.10;99.90;;;;;;5082947;28;20412;-59
2022/05/28 01:25:20;;;;;;;16.80;8.20;;;18.10;99.90;;;;;;5097391;28;20074;-59
2022/05/28 01:28:09;;;;;;;16.58;8.65;;;18.10;99.90;;;;;;5104413;28;20027;-59
2022/05/28 01:30:38;;;;;;;23.15;9.75;;;18.00;99.90;;;;;;5099497;28;20735;-59
2022/05/28 01:33:06;;;;;;;10.82;8.18;;;18.00;99.90;;;;;;5117781;28;20504;-59
2022/05/28 01:35:33;;;;;;;19.25;7.80;;;17.90;99.90;;;;;;5117550;28;20495;-59
2022/05/28 01:38:00;;;;;;;19.42;9.43;;;18.00;99.90;;;;;;5117370;28;20043;-59
2022/05/28 01:40:27;;;;;;;25.80;11.02;;;17.90;99.90;;;;;;5117556;28;20028;-59
2022/05/28 01:42:56;;;;;;;23.05;11.73;;;17.90;99.90;;;;;;5117567;28;20036;-59
2022/05/28 01:45:26;;;;;;;28.75;13.43;;;17.90;99.90;;;;;;5117235;28;20027;-59
2022/05/28 01:47:54;;;;;;;21.23;12.27;;;18.00;99.90;;;;;;5117807;28;20055;-59
2022/05/28 01:50:23;;;;;;;24.25;13.65;;;18.10;99.90;;;;;;5117481;28;20016;-59
2022/05/28 01:52:51;;;;;;;20.42;12.65;;;18.10;99.90;;;;;;5117074;28;20031;-59
2022/05/28 01:55:18;;;;;;;27.30;12.77;;;18.20;99.90;;;;;;5101498;28;20060;-59
2022/05/28 01:57:45;;;;;;;24.15;12.48;;;18.30;99.90;;;;;;5096916;28;20028;-59
2022/05/28 02:00:11;;;;;;;24.25;13.35;;;18.30;99.90;;;;;;5096752;28;20035;-59
2022/05/28 02:02:38;;;;;;;24.15;12.45;;;18.30;99.90;;;;;;5096761;28;20106;-59
2022/05/28 02:05:04;;;;;;;22.23;11.73;;;18.40;99.90;;;;;;5096550;28;20032;-59
2022/05/28 02:07:30;;;;;;;23.20;11.68;;;18.40;99.90;;;;;;5095806;28;20035;-59
2022/05/28 02:10:05;;;;;;;20.40;11.55;;;18.40;99.90;;;;;;5096431;28;20054;-59
2022/05/28 02:13:01;;;;;;;28.15;12.40;;;18.50;99.90;;;;;;5096467;28;20031;-59
2022/05/28 02:15:48;;;;;;;14.45;9.60;;;18.40;99.90;;;;;;5096286;28;20024;-59
2022/05/28 02:18:42;;;;;;;14.82;8.88;;;18.50;99.90;;;;;;5096369;28;20039;-59
2022/05/28 02:21:17;;;;;;;21.10;7.95;;;18.50;99.90;;;;;;5096275;28;20092;-59
2022/05/28 02:23:45;;;;;;;13.48;6.97;;;18.60;99.90;;;;;;5096389;28;20024;-59
2022/05/28 02:26:11;;;;;;;10.60;6.10;;;18.50;99.90;;;;;;5096472;28;20089;-59
2022/05/28 02:28:39;;;;;;;12.18;6.03;;;18.50;99.90;;;;;;5110006;28;20035;-59
2022/05/28 02:31:19;;;;;;;10.25;5.57;;;18.40;99.90;;;;;;5116677;28;20554;-59
2022/05/28 02:33:46;;;;;;;11.80;5.18;;;18.40;99.90;;;;;;5116590;28;20024;-59
2022/05/28 02:36:14;;;;;;;11.57;5.60;;;18.50;99.90;;;;;;5116224;28;20438;-59
2022/05/28 02:38:40;;;;;;;9.07;5.75;;;18.50;99.90;;;;;;5116637;28;20480;-59
2022/05/28 02:41:06;;;;;;;11.27;5.35;;;18.50;99.90;;;;;;5116245;28;20059;-59
2022/05/28 02:43:33;;;;;;;12.70;4.93;;;18.50;99.90;;;;;;5116318;28;20039;-59
2022/05/28 02:46:01;;;;;;;11.07;4.95;;;18.50;99.90;;;;;;5116341;28;20019;-59
2022/05/28 02:48:27;;;;;;;8.25;3.97;;;18.50;99.90;;;;;;5116324;28;20051;-59
2022/05/28 02:50:53;;;;;;;5.97;3.90;;;18.50;99.90;;;;;;5116260;28;20062;-59
2022/05/28 02:53:19;;;;;;;9.40;4.30;;;18.50;99.90;;;;;;5116405;28;20098;-59
2022/05/28 02:55:45;;;;;;;9.95;4.05;;;18.40;99.90;;;;;;5096004;28;20114;-59
2022/05/28 02:58:12;;;;;;;17.23;4.30;;;18.50;99.90;;;;;;5095787;28;20028;-59
2022/05/28 03:00:38;;;;;;;13.68;4.22;;;18.40;99.90;;;;;;5095678;28;20028;-59
2022/05/28 03:03:04;;;;;;;5.72;3.83;;;18.40;99.90;;;;;;5095476;28;20036;-59
2022/05/28 03:05:30;;;;;;;11.25;4.28;;;18.40;99.90;;;;;;5095324;28;20117;-59
2022/05/28 03:07:56;;;;;;;8.70;4.20;;;18.30;99.90;;;;;;5095657;28;20109;-59
2022/05/28 03:10:22;;;;;;;12.05;4.05;;;18.20;99.90;;;;;;5095286;28;20063;-59
2022/05/28 03:12:48;;;;;;;6.65;3.50;;;18.20;99.90;;;;;;5095798;28;20035;-59
2022/05/28 03:15:14;;;;;;;8.13;3.50;;;18.20;99.90;;;;;;5095376;28;20478;-59
2022/05/28 03:17:40;;;;;;;7.47;3.17;;;18.20;99.90;;;;;;5095175;28;20084;-59
2022/05/28 03:20:07;;;;;;;12.30;3.78;;;18.10;99.90;;;;;;5094952;28;20032;-59
2022/05/28 03:22:33;;;;;;;5.60;2.85;;;18.10;99.90;;;;;;5095420;28;20032;-59
2022/05/28 03:24:59;;;;;;;8.57;3.38;;;18.10;99.90;;;;;;5094902;28;20024;-59
2022/05/28 03:27:25;;;;;;;9.77;3.78;;;18.00;99.90;;;;;;5099464;28;20407;-59
2022/05/28 03:29:50;;;;;;;8.15;3.70;;;18.10;99.90;;;;;;5115630;28;20469;-59
2022/05/28 03:32:16;;;;;;;10.27;3.85;;;18.00;99.90;;;;;;5115448;28;20030;-59
2022/05/28 03:34:42;;;;;;;6.75;3.20;;;18.00;99.90;;;;;;5115349;28;20477;-59
2022/05/28 03:37:08;;;;;;;8.38;3.33;;;18.00;99.90;;;;;;5114455;28;20038;-59
2022/05/28 03:39:34;;;;;;;9.77;3.35;;;18.00;99.90;;;;;;5115119;28;20028;-59
2022/05/28 03:42:00;;;;;;;9.38;3.38;;;17.90;99.90;;;;;;5115440;28;20054;-59
2022/05/28 03:44:26;;;;;;;6.72;2.50;;;17.90;99.90;;;;;;5115304;28;20039;-59
2022/05/28 03:46:52;;;;;;;9.45;3.20;;;17.80;99.90;;;;;;5115204;28;20053;-59
2022/05/28 03:49:33;;;;;;;12.77;3.30;;;17.80;99.90;;;;;;5115244;28;20040;-59
2022/05/28 03:51:59;;;;;;;;;;;17.80;99.90;;;;;;5115675;28;20034;-59
2022/05/28 03:54:25;;;;;;;13.90;3.17;;;17.80;99.90;;;;;;5106675;28;19904;-59
2022/05/28 03:56:56;;;;;;;10.85;2.95;;;17.80;99.90;;;;;;5094708;28;20085;-59
2022/05/28 03:59:23;;;;;;;10.80;3.63;;;17.90;99.90;;;;;;5094633;28;20032;-59
2022/05/28 04:01:49;;;;;;;8.18;3.03;;;17.90;99.90;;;;;;5094570;28;20023;-59
2022/05/28 04:04:14;;;;;;;8.57;3.10;;;17.90;99.90;;;;;;5094657;28;20024;-59
2022/05/28 04:06:40;;;;;;;6.88;2.65;;;18.00;99.90;;;;;;5094317;28;20385;-59
2022/05/28 04:09:07;;;;;;;7.63;2.63;;;18.00;99.90;;;;;;5094480;28;20553;-59
2022/05/28 04:11:35;;;;;;;6.90;2.70;;;18.00;99.90;;;;;;5094645;28;20141;-59
2022/05/28 04:14:02;;;;;;;7.55;2.00;;;17.90;99.90;;;;;;5094391;28;20020;-59
2022/05/28 04:16:29;;;;;;;6.55;2.15;;;18.10;99.90;;;;;;5094325;28;20030;-59
2022/05/28 04:18:54;;;;;;;4.22;2.33;;;18.10;99.90;;;;;;5094633;28;20024;-59
2022/05/28 04:21:22;;;;;;;13.65;3.85;;;18.10;99.90;;;;;;5094123;28;20470;-59
2022/05/28 04:23:48;;;;;;;8.57;3.22;;;18.20;99.90;;;;;;5094476;28;20032;-59
2022/05/28 04:26:14;;;;;;;9.25;2.80;;;18.20;99.90;;;;;;5094523;28;20060;-59
2022/05/28 04:28:40;;;;;;;4.57;2.17;;;18.30;99.90;;;;;;5108554;28;20039;-59
2022/05/28 04:31:06;;;;;;;5.10;2.33;;;18.20;99.90;;;;;;5116059;28;20032;-59
2022/05/28 04:33:32;;;;;;;6.32;2.38;;;18.20;99.90;;;;;;5119042;28;20448;-59
2022/05/28 04:35:58;;;;;;;9.82;3.67;;;18.30;99.90;;;;;;5118439;28;20057;-59
2022/05/28 04:38:24;;;;;;;9.88;3.40;;;18.30;99.90;;;;;;5118961;28;20035;-59
2022/05/28 04:40:50;;;;;;;8.43;3.08;;;18.40;99.90;;;;;;5118804;28;20373;-59
2022/05/28 04:43:18;;;;;;;13.00;3.47;;;18.40;99.90;;;;;;5118678;28;20057;-59
2022/05/28 04:45:45;;;;;;;10.32;3.42;;;18.40;99.90;;;;;;5118702;28;20028;-59
2022/05/28 04:48:12;;;;;;;6.70;3.22;;;18.40;99.90;;;;;;5118673;28;20015;-59
2022/05/28 04:50:38;;;;;;;7.35;3.28;;;18.40;99.90;;;;;;5118441;28;20095;-59
2022/05/28 04:53:04;;;;;;;16.05;5.78;;;18.40;99.90;;;;;;5118588;28;20104;-59
2022/05/28 04:55:31;;;;;;;11.38;4.18;;;18.40;99.90;;;;;;5100799;28;20114;-59
2022/05/28 04:57:57;;;;;;;14.00;4.82;;;18.40;99.90;;;;;;5097860;28;20056;-59
2022/05/28 05:00:26;;;;;;;15.45;5.70;;;18.50;99.90;;;;;;5097965;28;20378;-59
2022/05/28 05:02:52;;;;;;;14.73;5.10;;;18.50;99.90;;;;;;5097900;28;20039;-59
2022/05/28 05:05:18;;;;;;;17.13;5.22;;;18.50;99.90;;;;;;5097524;28;20083;-59
2022/05/28 05:07:44;;;;;;;15.70;5.10;;;18.50;99.90;;;;;;5098007;28;20078;-59
2022/05/28 05:10:10;;;;;;;13.45;5.43;;;18.50;99.90;;;;;;5097807;28;20024;-59
2022/05/28 05:12:37;;;;;;;16.70;6.10;;;18.60;99.90;;;;;;5097586;28;20035;-59
2022/05/28 05:15:03;;;;;;;20.60;7.00;;;18.70;99.90;;;;;;5097769;28;20024;-59
2022/05/28 05:17:29;;;;;;;17.40;5.57;;;18.70;99.90;;;;;;5097424;28;20035;-59
2022/05/28 05:19:55;;;;;;;20.23;6.20;;;18.80;99.90;;;;;;5097764;28;20035;-59
2022/05/28 05:22:21;;;;;;;12.50;4.68;;;18.80;99.90;;;;;;5097913;28;20047;-59
2022/05/28 05:24:47;;;;;;;10.38;4.50;;;18.80;99.90;;;;;;5097391;28;20035;-59
2022/05/28 05:27:13;;;;;;;19.08;4.82;;;18.80;99.90;;;;;;5099917;28;20024;-59
2022/05/28 05:29:40;;;;;;;17.55;4.07;;;18.90;99.90;;;;;;5118042;28;20108;-59
2022/05/28 05:32:06;;;;;;;11.70;3.45;;;19.00;99.90;;;;;;5117761;28;20032;-59
2022/05/28 05:34:32;;;;;;;11.85;3.75;;;19.00;99.90;;;;;;5117725;28;20043;-59
2022/05/28 05:36:58;;;;;;;12.77;3.00;;;19.00;99.90;;;;;;5118080;28;20062;-59
2022/05/28 05:39:24;;;;;;;8.75;2.38;;;19.10;99.90;;;;;;5117709;28;20088;-59
2022/05/28 05:41:50;;;;;;;7.97;3.03;;;19.20;99.90;;;;;;5117726;28;20023;-59
2022/05/28 05:44:16;;;;;;;11.10;3.20;;;19.20;99.90;;;;;;5117548;28;20084;-59
2022/05/28 05:46:43;;;;;;;6.63;2.35;;;19.30;99.90;;;;;;5117299;28;20019;-59
2022/05/28 05:49:10;;;;;;;11.13;2.60;;;19.30;99.90;;;;;;5117573;28;20027;-59
2022/05/28 05:51:45;;;;;;;10.95;2.78;;;19.30;99.90;;;;;;5117538;28;20106;-59
2022/05/28 05:54:11;;;;;;;12.02;3.80;;;19.30;99.90;;;;;;5110619;28;20027;-59
2022/05/28 05:56:37;;;;;;;13.00;3.00;;;19.40;99.90;;;;;;5096952;28;20028;-59
2022/05/28 05:59:03;;;;;;;7.57;2.63;;;19.40;99.90;;;;;;5096753;28;20105;-59
2022/05/28 06:01:29;;;;;;;9.25;2.38;;;19.40;99.90;;;;;;5096725;28;20031;-59
2022/05/28 06:03:55;;;;;;;6.20;2.35;;;19.50;99.90;;;;;;5096867;28;20032;-59
2022/05/28 06:06:21;;;;;;;13.45;3.60;;;19.60;99.90;;;;;;5096692;28;20031;-59
2022/05/28 06:08:47;;;;;;;14.73;3.88;;;19.60;99.90;;;;;;5096554;28;20089;-59
2022/05/28 06:11:14;;;;;;;24.40;3.97;;;19.60;99.90;;;;;;5096892;28;20020;-59
2022/05/28 06:13:40;;;;;;;26.50;4.72;;;19.60;99.90;;;;;;5096548;28;20021;-59
2022/05/28 06:16:06;;;;;;;14.95;3.97;;;19.50;99.90;;;;;;5096116;28;20525;-59
2022/05/28 06:18:33;;;;;;;8.75;2.50;;;19.50;99.90;;;;;;5096393;28;20065;-59
2022/05/28 06:21:00;;;;;;;11.25;2.97;;;19.60;99.90;;;;;;5096432;28;20470;-59
2022/05/28 06:23:27;;;;;;;4.05;1.80;;;19.70;99.90;;;;;;5096259;28;20414;-59
2022/05/28 06:25:53;;;;;;;7.97;1.85;;;19.80;99.90;;;;;;5096388;28;20031;-59
2022/05/28 06:28:19;;;;;;;7.15;2.10;;;19.90;99.90;;;;;;5107757;28;20028;-59
2022/05/28 06:30:47;;;;;;;11.60;2.30;;;19.90;99.90;;;;;;5116472;28;20043;-59
2022/05/28 06:33:13;;;;;;;5.50;1.73;;;19.90;99.90;;;;;;5116871;28;20477;-59
2022/05/28 06:35:39;;;;;;;6.47;2.10;;;19.80;99.90;;;;;;5116386;28;20051;-59
2022/05/28 06:38:05;;;;;;;16.38;4.18;;;19.80;99.90;;;;;;5116282;28;20042;-59
2022/05/28 06:40:34;;;;;;;10.82;2.70;;;19.70;99.90;;;;;;5116509;28;20023;-59
2022/05/28 06:43:00;;;;;;;18.92;3.25;;;19.60;99.90;;;;;;5116258;28;20066;-59
2022/05/28 06:45:26;;;;;;;16.52;3.30;;;19.80;99.90;;;;;;5116072;28;20062;-59
2022/05/28 06:47:52;;;;;;;9.82;1.95;;;19.60;99.90;;;;;;5116439;28;20076;-59
2022/05/28 06:53:08;;;;;;;30.83;4.80;;;19.70;99.90;;;;;;5116026;28;20028;-59
2022/05/28 06:55:37;;;;;;;20.75;3.90;;;19.50;99.90;;;;;;5097683;28;20036;-59
2022/05/28 06:58:06;;;;;;;13.98;2.80;;;19.50;99.90;;;;;;5095629;28;20027;-59
2022/05/28 07:00:33;;;;;;;8.85;2.00;;;19.30;99.90;;;;;;5095459;28;20467;-59
2022/05/28 07:02:58;;;;;;;12.10;2.60;;;19.50;99.90;;;;;;5095902;28;20028;-59
2022/05/28 07:05:25;;;;;;;24.55;5.35;;;19.50;99.90;;;;;;5095311;28;20024;-59
2022/05/28 07:07:51;;;;;;;17.00;4.40;;;19.60;99.90;;;;;;5095523;28;20024;-59
2022/05/28 07:10:17;;;;;;;14.30;3.95;;;19.60;99.90;;;;;;5095650;28;20055;-59
2022/05/28 07:12:43;;;;;;;33.10;6.22;;;19.30;99.90;;;;;;5095420;28;20067;-59
2022/05/28 07:15:09;;;;;;;26.33;6.00;;;19.40;99.90;;;;;;5095427;28;20034;-59
2022/05/28 07:17:35;;;;;;;17.35;3.92;;;19.60;99.90;;;;;;5095178;28;20040;-59
2022/05/28 07:20:01;;;;;;;12.65;2.90;;;19.70;99.90;;;;;;5095173;28;20453;-59
2022/05/28 07:22:29;;;;;;;10.07;2.85;;;19.80;99.90;;;;;;5095192;28;20024;-59
2022/05/28 07:24:54;;;;;;;12.07;3.03;;;19.50;99.90;;;;;;5095334;28;20032;-59
2022/05/28 07:27:20;;;;;;;18.15;4.80;;;19.20;99.90;;;;;;5098478;28;20076;-59
2022/05/28 07:29:46;;;;;;;8.23;3.08;;;19.20;99.90;;;;;;5115526;28;20072;-59
2022/05/28 07:32:12;;;;;;;13.63;3.53;;;19.30;99.90;;;;;;5115536;28;20103;-59
2022/05/28 07:34:38;;;;;;;7.22;2.63;;;19.30;99.90;;;;;;5115350;28;20077;-59
2022/05/28 07:37:04;;;;;;;7.57;4.00;;;19.40;99.90;;;;;;5115163;28;20035;-59
2022/05/28 07:39:30;;;;;;;15.02;3.90;;;19.50;99.90;;;;;;5115436;28;20031;-59
2022/05/28 07:41:56;;;;;;;6.75;2.92;;;19.50;99.90;;;;;;5115281;28;20174;-59
2022/05/28 07:44:22;;;;;;;7.63;2.90;;;19.40;99.90;;;;;;5115264;28;20080;-59
2022/05/28 07:46:48;;;;;;;15.55;3.70;;;19.50;99.90;;;;;;5115080;28;20435;-59
2022/05/28 07:49:14;;;;;;;18.50;5.22;;;19.50;99.90;;;;;;5115127;28;20043;-59
2022/05/28 07:51:40;;;;;;;17.17;5.85;;;19.60;99.90;;;;;;5115149;28;20028;-59
2022/05/28 07:54:06;;;;;;;16.80;4.28;;;19.50;99.90;;;;;;5109021;28;20020;-59
2022/05/28 07:56:33;;;;;;;19.77;4.38;;;19.50;99.90;;;;;;5094632;28;20055;-59
2022/05/28 07:58:59;;;;;;;16.70;4.68;;;19.60;99.90;;;;;;5094746;28;20035;-59
2022/05/28 08:01:31;;;;;;;17.23;4.13;;;19.50;99.90;;;;;;5094535;28;20032;-59
2022/05/28 08:03:59;;;;;;;30.95;5.07;;;19.20;99.90;;;;;;5094580;28;20021;-59
2022/05/28 08:06:26;;;;;;;8.80;3.13;;;19.20;99.90;;;;;;5093616;28;20035;-59
2022/05/28 08:08:52;;;;;;;14.13;3.50;;;19.10;99.90;;;;;;5094503;28;20031;-59
2022/05/28 08:11:20;;;;;;;15.60;4.10;;;19.00;99.90;;;;;;5094317;28;20591;-59
2022/05/28 08:13:46;;;;;;;7.65;2.53;;;19.00;99.90;;;;;;5094572;28;20113;-59
2022/05/28 08:16:12;;;;;;;7.60;2.65;;;19.00;99.90;;;;;;5094391;28;20064;-60
2022/05/28 08:18:39;;;;;;;21.17;4.07;;;18.90;99.90;;;;;;5094316;28;20111;-59
2022/05/28 08:23:51;;;;;;;10.40;2.55;;;18.80;99.90;;;;;;5094244;28;20501;-59
2022/05/28 08:26:19;;;;;;;6.97;2.28;;;18.80;99.90;;;;;;5094438;28;20024;-59
2022/05/28 08:28:47;;;;;;;9.00;2.50;;;18.90;99.90;;;;;;5109794;28;20027;-59
2022/05/28 08:31:13;;;;;;;11.20;3.60;;;19.00;99.90;;;;;;5114827;28;20098;-59
2022/05/28 08:33:39;;;;;;;5.88;2.22;;;19.00;99.90;;;;;;5114688;28;20031;-60
2022/05/28 08:36:06;;;;;;;11.55;3.53;;;19.10;99.90;;;;;;5114507;28;20073;-59
2022/05/28 08:38:33;;;;;;;10.80;2.90;;;19.20;99.90;;;;;;5114409;28;20031;-59
2022/05/28 08:41:12;;;;;;;15.25;2.85;;;19.20;99.90;;;;;;5114708;28;20106;-59
2022/05/28 08:43:53;;;;;;;11.18;2.60;;;19.20;99.90;;;;;;5114491;28;20426;-59
2022/05/28 08:46:19;;;;;;;14.23;3.08;;;19.20;99.90;;;;;;5114488;28;20034;-59
2022/05/28 08:48:52;;;;;;;17.98;4.00;;;18.90;99.90;;;;;;5114723;28;20115;-59
2022/05/28 08:51:48;;;;;;;12.57;3.60;;;19.10;99.90;;;;;;5114292;28;20039;-59
2022/05/28 08:54:37;;;;;;;8.85;3.47;;;18.80;99.90;;;;;;5107350;28;20081;-59
2022/05/28 08:57:08;;;;;;;19.30;4.68;;;19.00;99.90;;;;;;5094018;28;20032;-59
2022/05/28 08:59:56;;;;;;;14.30;4.20;;;18.80;99.90;;;;;;5093778;28;20490;-59
2022/05/28 09:02:34;;;;;;;8.60;3.47;;;18.80;99.90;;;;;;5079440;28;20040;-59
2022/05/28 09:05:01;;;;;;;14.40;4.45;;;18.80;99.90;;;;;;5093705;28;20122;-59
2022/05/28 09:07:27;;;;;;;13.18;3.83;;;18.90;99.90;;;;;;5093675;28;20161;-59
2022/05/28 09:09:54;;;;;;;21.80;5.35;;;18.90;99.90;;;;;;5094360;28;20035;-59
2022/05/28 09:12:25;;;;;;;13.40;3.97;;;19.00;99.90;;;;;;5093852;28;20500;-59
2022/05/28 09:14:51;;;;;;;23.02;4.22;;;18.90;99.90;;;;;;5093678;28;20036;-59
2022/05/28 09:17:25;;;;;;;36.10;5.40;;;18.90;99.90;;;;;;5095133;28;20039;-59
2022/05/28 09:19:53;;;;;;;20.58;4.38;;;18.80;99.90;;;;;;5097535;28;20028;-59
2022/05/28 09:22:22;;;;;;;40.03;6.13;;;18.90;99.90;;;;;;5097475;28;20047;-59
2022/05/28 09:24:48;;;;;;;18.77;3.70;;;18.90;99.90;;;;;;5097518;28;20024;-59
2022/05/28 09:27:38;;;;;;;9.75;3.00;;;18.90;99.90;;;;;;5099909;28;20078;-59
2022/05/28 09:30:13;;;;;;;21.83;3.65;;;18.80;99.90;;;;;;5117841;28;20039;-59
2022/05/28 09:33:16;;;;;;;14.05;3.53;;;18.80;99.90;;;;;;5117896;28;20034;-59
2022/05/28 09:36:04;;;;;;;7.85;2.88;;;18.80;99.90;;;;;;5117314;28;20048;-59
2022/05/28 09:39:08;;;;;;;24.00;5.38;;;18.90;99.90;;;;;;5117799;28;20031;-59
2022/05/28 09:41:53;;;;;;;21.23;4.65;;;18.90;99.90;;;;;;5117428;28;20110;-59
2022/05/28 09:44:46;;;;;;;10.73;3.17;;;18.90;99.90;;;;;;5117340;28;20036;-59
2022/05/28 09:47:19;;;;;;;5.20;2.55;;;19.00;99.90;;;;;;5117733;28;20381;-59
2022/05/28 09:49:46;;;;;;;11.18;4.03;;;18.80;99.90;;;;;;5117363;28;20028;-59
2022/05/28 09:52:12;;;;;;;26.40;4.40;;;18.90;99.90;;;;;;5117725;28;20062;-59
2022/05/28 09:54:38;;;;;;;37.17;5.93;;;18.90;99.90;;;;;;5106793;28;20028;-58
2022/05/28 09:57:09;;;;;;;61.97;6.95;;;19.00;99.90;;;;;;5096765;28;20047;-59
2022/05/28 09:59:46;;;;;;;19.08;4.30;;;18.90;99.90;;;;;;5096890;28;20116;-59
2022/05/28 10:02:29;;;;;;;14.00;3.33;;;18.90;99.90;;;;;;5096787;28;20028;-59
2022/05/28 10:05:04;;;;;;;3.88;2.75;;;18.70;99.90;;;;;;5096553;28;20024;-59
2022/05/28 10:07:36;;;;;;;5.90;2.63;;;18.60;99.90;;;;;;5096893;28;20039;-59
2022/05/28 10:10:23;;;;;;;13.05;3.72;;;18.50;99.90;;;;;;5096510;28;20036;-59
2022/05/28 10:12:50;;;;;;;12.98;3.20;;;18.30;99.90;;;;;;5096470;28;20065;-59
2022/05/28 10:15:23;;;;;;;20.45;4.53;;;18.30;99.90;;;;;;5096611;28;20117;-59
2022/05/28 10:18:00;;;;;;;20.27;4.32;;;18.20;99.90;;;;;;5096249;28;20028;-59
2022/05/28 10:20:27;;;;;;;19.52;4.30;;;18.10;99.90;;;;;;5096427;28;20040;-59
2022/05/28 10:22:55;;;;;;;19.55;4.70;;;18.00;99.90;;;;;;5096705;28;20079;-59
2022/05/28 10:25:47;;;;;;;10.20;3.88;;;18.00;99.90;;;;;;5096050;28;20473;-59
2022/05/28 10:28:13;;;;;;;10.13;3.55;;;17.90;99.90;;;;;;5106558;28;20118;-59
2022/05/28 10:30:42;;;;;;;6.88;3.20;;;17.90;99.90;;;;;;5116432;28;20036;-58
2022/05/28 10:33:18;;;;;;;14.18;3.45;;;17.80;99.90;;;;;;5116492;28;20042;-59
2022/05/28 10:35:45;;;;;;;13.68;3.83;;;17.80;99.90;;;;;;5116565;28;20377;-59
2022/05/28 10:38:11;;;;;;;22.90;4.05;;;17.80;99.90;;;;;;5116354;28;20036;-59
2022/05/28 10:40:54;;;;;;;35.80;6.60;;;17.60;99.90;;;;;;5116339;28;20042;-59
2022/05/28 10:43:33;;;;;;;23.83;4.07;;;17.60;99.90;;;;;;5116585;28;20031;-59
2022/05/28 10:46:11;;;;;;;12.88;3.95;;;17.40;99.90;;;;;;5116151;28;20028;-59
2022/05/28 10:48:43;;;;;;;15.02;3.58;;;17.00;99.90;;;;;;5116280;28;20031;-59
2022/05/28 10:51:29;;;;;;;13.25;3.30;;;17.00;99.90;;;;;;5116337;28;20031;-59
2022/05/28 10:54:10;;;;;;;25.88;6.38;;;17.10;99.90;;;;;;5111684;28;20396;-58
2022/05/28 10:56:45;;;;;;;21.08;4.47;;;17.00;99.90;;;;;;5095882;28;20063;-59
2022/05/28 10:59:18;;;;;;;13.43;3.95;;;17.00;99.90;;;;;;5095597;28;20024;-59
2022/05/28 11:01:52;;;;;;;14.73;3.88;;;17.00;99.90;;;;;;5095662;28;20032;-59
2022/05/28 11:04:48;;;;;;;11.65;3.28;;;16.80;99.90;;;;;;5095545;28;20028;-59
2022/05/28 11:07:29;;;;;;;7.95;2.75;;;16.90;99.90;;;;;;5091463;28;20044;-59
2022/05/28 11:10:14;;;;;;;;;;;16.70;99.90;;;;;;5095583;28;20032;-58
2022/05/28 11:13:03;;;;;;;4.40;2.58;;;16.70;99.90;;;;;;5095563;28;20321;-59
2022/05/28 11:15:47;;;;;;;5.38;2.30;;;16.60;99.90;;;;;;5057233;28;20139;-58
2022/05/28 11:18:34;;;;;;;9.68;3.75;;;16.60;99.90;;;;;;5095425;28;20036;-59
2022/05/28 11:21:16;;;;;;;7.35;2.78;;;16.60;99.90;;;;;;5095260;28;20047;-59
2022/05/28 11:24:07;;;;;;;9.05;4.35;;;16.40;99.90;;;;;;5095669;28;20024;-59
2022/05/28 11:26:43;;;;;;;14.70;7.28;;;16.50;99.90;;;;;;5095377;28;20028;-58
2022/05/28 11:29:09;;;;;;;15.13;8.10;;;16.20;99.90;;;;;;5079671;28;20040;-59
2022/05/28 11:31:51;;;;;;;16.00;7.57;;;16.20;99.90;;;;;;5115409;28;20025;-59
2022/05/28 11:34:40;;;;;;;16.08;6.93;;;16.10;99.90;;;;;;5115490;28;20772;-59
2022/05/28 11:37:17;;;;;;;13.52;7.07;;;16.20;99.90;;;;;;5115280;28;20038;-59
2022/05/28 11:40:18;;;;;;;15.00;7.40;;;16.00;99.90;;;;;;5115287;28;20107;-59
2022/05/28 11:43:02;;;;;;;15.63;7.90;;;16.20;99.90;;;;;;5104426;28;20028;-59
2022/05/28 11:45:43;;;;;;;15.50;8.07;;;16.30;99.90;;;;;;5115222;28;20035;-59
2022/05/28 11:51:33;;;;;;;18.80;7.63;;;16.30;99.90;;;;;;5115131;28;20046;-59
2022/05/28 11:54:22;;;;;;;14.05;6.72;;;16.20;99.90;;;;;;5110197;28;20024;-59
2022/05/28 11:56:52;;;;;;;14.25;5.53;;;16.20;99.90;;;;;;5094622;28;20366;-59
2022/05/28 11:59:23;;;;;;;13.77;6.27;;;16.40;99.90;;;;;;5094601;28;20361;-59
2022/05/28 12:01:51;;;;;;;8.45;4.82;;;16.50;99.90;;;;;;5094634;28;20363;-59
2022/05/28 12:04:18;;;;;;;5.45;2.80;;;16.60;99.90;;;;;;5094401;28;20020;-59
2022/05/28 12:07:08;;;;;;;6.05;2.40;;;16.60;99.90;;;;;;5094580;28;20435;-59
2022/05/28 12:09:40;;;;;;;11.60;3.53;;;16.70;99.90;;;;;;5094346;28;20032;-59
2022/05/28 12:12:26;;;;;;;7.35;2.90;;;16.60;99.90;;;;;;5094199;28;20024;-59
2022/05/28 12:15:14;;;;;;;9.68;3.05;;;16.80;99.90;;;;;;5094397;28;20024;-59
2022/05/28 12:17:41;;;;;;;26.60;4.65;;;17.00;99.90;;;;;;5094180;28;20498;-58
2022/05/28 12:20:11;;;;;;;10.57;2.58;;;16.80;99.90;;;;;;5094455;28;20102;-59
2022/05/28 12:22:55;;;;;;;5.32;2.35;;;16.50;99.90;;;;;;5094552;28;20031;-59
2022/05/28 12:25:32;;;;;;;12.98;3.55;;;16.80;99.90;;;;;;5094220;28;20036;-59
2022/05/28 12:28:05;;;;;;;6.97;2.30;;;16.70;99.90;;;;;;5103062;28;20032;-59
2022/05/28 12:30:46;;;;;;;8.75;2.22;;;16.70;99.90;;;;;;5115079;28;20432;-59
2022/05/28 12:33:31;;;;;;;6.93;2.80;;;16.80;99.90;;;;;;5114623;28;20023;-59
2022/05/28 12:36:16;;;;;;;14.15;4.00;;;16.90;99.90;;;;;;5114502;28;20039;-58
2022/05/28 12:39:01;;;;;;;9.70;2.83;;;16.90;99.90;;;;;;5114776;28;20381;-59
2022/05/28 12:41:30;;;;;;;9.05;2.75;;;16.70;99.90;;;;;;5114375;28;20039;-59
2022/05/28 12:44:20;;;;;;;11.50;2.95;;;16.70;99.90;;;;;;5114749;28;20043;-59
2022/05/28 12:47:00;;;;;;;14.40;3.88;;;16.80;99.90;;;;;;5106909;28;20074;-58
2022/05/28 12:49:33;;;;;;;9.45;2.95;;;16.80;99.90;;;;;;5114610;28;20549;-59
2022/05/28 12:52:11;;;;;;;6.97;2.92;;;16.80;99.90;;;;;;5115719;28;20028;-59
2022/05/28 12:54:39;;;;;;;9.52;2.75;;;16.70;99.90;;;;;;5108079;28;20042;-59
2022/05/28 12:57:29;;;;;;;11.48;3.63;;;16.80;99.90;;;;;;5098246;28;20120;-59
2022/05/28 13:00:03;;;;;;;11.50;3.42;;;16.90;99.90;;;;;;5097870;28;20031;-59
2022/05/28 13:02:38;;;;;;;8.80;3.10;;;16.90;99.90;;;;;;5097829;28;20058;-59
2022/05/28 13:05:22;;;;;;;12.70;3.50;;;16.80;99.90;;;;;;5097725;28;20080;-59
2022/05/28 13:07:53;;;;;;;15.02;3.70;;;16.70;99.90;;;;;;5078604;28;20491;-59
2022/05/28 13:10:23;;;;;;;7.70;3.20;;;16.80;99.90;;;;;;5097742;28;20501;-59